Current | Forecast
Updated: 7:00 PM CEST on October 23, 2017
Observed at Palma de Mallorca, Spain
Temperature 19°C
Humidity 64%
Dew Point 12°C
Wind NW at 11 km/h
Pressure 1023 hPa (Steady)
Conditions Partly Cloudy
Visibility 10.0 kilometers
UV 0 out of 16
Clouds (FEW) : 609 m
Yesterday's Maximum 19°C
Yesterday's Minimum 13°C approx.
Yesterday's Heating Degree Days 4 approx.
Sunrise8:06 AM CEST
Sunset6:57 PM CEST
Moon Rise11:20 AM CEST
Moon Set9:35 PM CEST
Moon PhaseMoon Phase
Waxing Crescent
Raw METARMETAR LEPA 231700Z 32006KT 280V350 9999 FEW020 19/12 Q1023 NOSIG


Monday
. High: 80° F.
Tuesday
. High: 82° F.
Wednesday
. High: 80° F.
Thursday
. High: 77° F.
Friday
. High: 78° F.
Saturday
. High: 75° F.
Sunday
. High: 78° F.
Monday
. High: 77° F.

Click here for Marine Information
Scientific forecaster discussion (NWS)

Units: English | Metric

Find the Weather for any City, State or Zipcode, or Country:

U.S. State List | Severe Weather | Tropical Storms | Ski Conditions
United States | Canada | Central America | South America | Asia | Europe | Australia | Africa | Islands

Weather Underground

© Copyright 2017
The Weather Company, LLC